This is the latest recevied weather packets stored in our database for station/object WA0LM. If no packets are shown the sender has not sent any weather packets the latest 10 day(s).
| Time | Temp. | Humidity | Pressure | Rain* | Wind** | Luminosity | Snow |
|---|---|---|---|---|---|---|---|
| 1777933354 | 7.78° C | 61% | 1002.5 hPa | 0 mm | - | 113 W/m² | - |
| 1777933052 | 7.78° C | 57% | 1002.6 hPa | 0 mm | - | 67 W/m² | - |
| 1777932749 | 7.78° C | 56% | 1002.4 hPa | 0 mm | - | 111 W/m² | - |
| 1777932446 | 8.33° C | 54% | 1002.4 hPa | 0 mm | - | 231 W/m² | - |
| 1777932143 | 7.78° C | 57% | 1002.3 hPa | 0 mm | - | 177 W/m² | - |
| 1777931840 | 8.33° C | 56% | 1002.4 hPa | 0 mm | - | 180 W/m² | - |
| 1777931537 | 8.33° C | 59% | 1002.3 hPa | 0 mm | - | 188 W/m² | - |
| 1777931233 | 8.33° C | 55% | 1002.1 hPa | 0 mm | - | 132 W/m² | - |
| 1777930929 | 8.33° C | 58% | 1002 hPa | 0 mm | - | 166 W/m² | - |
| 1777930626 | 8.33° C | 56% | 1001.8 hPa | 0 mm | - | 217 W/m² | - |
| 1777930323 | 8.33° C | 57% | 1001.8 hPa | 0 mm | - | 418 W/m² | - |
| 1777930020 | 8.33° C | 56% | 1001.9 hPa | 0 mm | - | 165 W/m² | - |
| 1777929716 | 8.33° C | 57% | 1001.9 hPa | 0 mm | - | 140 W/m² | - |
| 1777929413 | 8.89° C | 53% | 1001.9 hPa | 0 mm | - | 210 W/m² | - |
| 1777929109 | 8.89° C | 56% | 1001.7 hPa | 0 mm | - | 216 W/m² | - |
| 1777928808 | 8.89° C | 53% | 1001.8 hPa | 0 mm | - | 218 W/m² | - |
| 1777928504 | 8.89° C | 51% | 1001.8 hPa | 0 mm | - | 234 W/m² | - |
| 1777928201 | 8.89° C | 54% | 1001.6 hPa | 0 mm | - | 247 W/m² | - |
| 1777927898 | 8.89° C | 49% | 1001.4 hPa | 0 mm | - | 272 W/m² | - |
| 1777927597 | 8.89° C | 50% | 1001.3 hPa | 0 mm | - | 258 W/m² | - |
| 1777927295 | 8.89° C | 54% | 1001.2 hPa | 0 mm | - | 395 W/m² | - |
| 1777926994 | 9.44° C | 53% | 1001.2 hPa | 0 mm | - | 931 W/m² | - |
| 1777926691 | 8.89° C | 53% | 1001.5 hPa | 0 mm | - | 442 W/m² | - |
| 1777926391 | 8.89° C | 51% | 1001.4 hPa | 0 mm | - | 454 W/m² | - |
| 1777926088 | 8.89° C | 56% | 1001.3 hPa | 0 mm | - | 282 W/m² | - |
* Rain latest hour (hover to see other rain measurements)
** Current wind speed in m/s (hover to see current wind gust speed)